sensor_id;sensor_type;location;lat;lon;timestamp;temperature;humidity
79026;DHT22;74892;44.760;37.726;2024-01-27T00:01:01;6.44;83.02
79026;DHT22;74892;44.760;37.726;2024-01-27T00:02:03;6.45;83.18
79026;DHT22;74892;44.760;37.726;2024-01-27T00:03:04;6.48;83.24
79026;DHT22;74892;44.760;37.726;2024-01-27T00:04:06;6.49;83.42
79026;DHT22;74892;44.760;37.726;2024-01-27T00:05:10;6.51;84.00
79026;DHT22;74892;44.760;37.726;2024-01-27T00:06:12;6.53;84.42
79026;DHT22;74892;44.760;37.726;2024-01-27T00:07:14;6.51;84.51
79026;DHT22;74892;44.760;37.726;2024-01-27T00:08:16;6.52;84.79
79026;DHT22;74892;44.760;37.726;2024-01-27T00:09:18;6.52;84.89
79026;DHT22;74892;44.760;37.726;2024-01-27T00:10:19;6.53;84.60
79026;DHT22;74892;44.760;37.726;2024-01-27T00:11:21;6.55;84.14
79026;DHT22;74892;44.760;37.726;2024-01-27T00:12:25;6.55;83.98
79026;DHT22;74892;44.760;37.726;2024-01-27T00:13:27;6.56;83.52
79026;DHT22;74892;44.760;37.726;2024-01-27T00:14:29;6.60;83.24
79026;DHT22;74892;44.760;37.726;2024-01-27T00:15:30;6.58;82.75
79026;DHT22;74892;44.760;37.726;2024-01-27T00:16:32;6.60;82.64
79026;DHT22;74892;44.760;37.726;2024-01-27T00:17:34;6.64;82.46
79026;DHT22;74892;44.760;37.726;2024-01-27T00:18:37;6.61;82.65
79026;DHT22;74892;44.760;37.726;2024-01-27T00:19:39;6.57;82.91
79026;DHT22;74892;44.760;37.726;2024-01-27T00:20:41;6.55;83.07
79026;DHT22;74892;44.760;37.726;2024-01-27T00:21:43;6.56;83.16
79026;DHT22;74892;44.760;37.726;2024-01-27T00:22:44;6.61;83.41
79026;DHT22;74892;44.760;37.726;2024-01-27T00:23:49;6.60;83.96
79026;DHT22;74892;44.760;37.726;2024-01-27T00:24:51;6.61;84.42
79026;DHT22;74892;44.760;37.726;2024-01-27T00:25:55;6.63;84.27
79026;DHT22;74892;44.760;37.726;2024-01-27T00:26:56;6.64;83.84
79026;DHT22;74892;44.760;37.726;2024-01-27T00:27:58;6.61;84.09
79026;DHT22;74892;44.760;37.726;2024-01-27T00:29:00;6.61;84.16
79026;DHT22;74892;44.760;37.726;2024-01-27T00:30:01;6.58;84.12
79026;DHT22;74892;44.760;37.726;2024-01-27T00:31:06;6.60;83.57
79026;DHT22;74892;44.760;37.726;2024-01-27T00:32:09;6.59;83.48
79026;DHT22;74892;44.760;37.726;2024-01-27T00:33:11;6.61;83.49
79026;DHT22;74892;44.760;37.726;2024-01-27T00:34:13;6.60;83.27
79026;DHT22;74892;44.760;37.726;2024-01-27T00:35:15;6.63;82.93
79026;DHT22;74892;44.760;37.726;2024-01-27T00:36:19;6.58;82.93
79026;DHT22;74892;44.760;37.726;2024-01-27T00:37:21;6.60;83.35
79026;DHT22;74892;44.760;37.726;2024-01-27T00:38:23;6.59;83.99
79026;DHT22;74892;44.760;37.726;2024-01-27T00:39:24;6.59;84.16
79026;DHT22;74892;44.760;37.726;2024-01-27T00:40:26;6.61;84.26
79026;DHT22;74892;44.760;37.726;2024-01-27T00:41:28;6.61;84.54
79026;DHT22;74892;44.760;37.726;2024-01-27T00:42:30;6.61;84.39
79026;DHT22;74892;44.760;37.726;2024-01-27T00:43:32;6.60;84.42
79026;DHT22;74892;44.760;37.726;2024-01-27T00:44:36;6.59;84.33
79026;DHT22;74892;44.760;37.726;2024-01-27T00:45:38;6.61;84.11
79026;DHT22;74892;44.760;37.726;2024-01-27T00:46:40;6.60;84.10
79026;DHT22;74892;44.760;37.726;2024-01-27T00:47:41;6.59;84.23
79026;DHT22;74892;44.760;37.726;2024-01-27T00:48:46;6.61;84.12
79026;DHT22;74892;44.760;37.726;2024-01-27T00:49:48;6.60;84.15
79026;DHT22;74892;44.760;37.726;2024-01-27T00:50:50;6.60;83.39
79026;DHT22;74892;44.760;37.726;2024-01-27T00:51:54;6.61;83.31
79026;DHT22;74892;44.760;37.726;2024-01-27T00:52:58;6.60;83.53
79026;DHT22;74892;44.760;37.726;2024-01-27T00:54:00;6.59;83.73
79026;DHT22;74892;44.760;37.726;2024-01-27T00:55:01;6.55;83.90
79026;DHT22;74892;44.760;37.726;2024-01-27T00:56:03;6.53;83.86
79026;DHT22;74892;44.760;37.726;2024-01-27T00:57:11;6.55;84.21
79026;DHT22;74892;44.760;37.726;2024-01-27T00:58:13;6.58;83.98
79026;DHT22;74892;44.760;37.726;2024-01-27T00:59:15;6.58;83.87
79026;DHT22;74892;44.760;37.726;2024-01-27T01:00:16;6.57;83.65
79026;DHT22;74892;44.760;37.726;2024-01-27T01:01:18;6.59;83.55
79026;DHT22;74892;44.760;37.726;2024-01-27T01:02:29;6.61;83.65
79026;DHT22;74892;44.760;37.726;2024-01-27T01:03:34;6.61;83.62
79026;DHT22;74892;44.760;37.726;2024-01-27T01:04:38;6.63;83.59
79026;DHT22;74892;44.760;37.726;2024-01-27T01:05:43;6.63;83.48
79026;DHT22;74892;44.760;37.726;2024-01-27T01:06:45;6.61;83.65
79026;DHT22;74892;44.760;37.726;2024-01-27T01:07:48;6.60;83.54
79026;DHT22;74892;44.760;37.726;2024-01-27T01:08:50;6.57;83.45
79026;DHT22;74892;44.760;37.726;2024-01-27T01:09:54;6.56;83.52
79026;DHT22;74892;44.760;37.726;2024-01-27T01:10:56;6.58;83.65
79026;DHT22;74892;44.760;37.726;2024-01-27T01:11:58;6.63;83.65
79026;DHT22;74892;44.760;37.726;2024-01-27T01:13:00;6.68;83.58
79026;DHT22;74892;44.760;37.726;2024-01-27T01:14:21;6.67;83.25
79026;DHT22;74892;44.760;37.726;2024-01-27T01:15:23;6.67;83.24
79026;DHT22;74892;44.760;37.726;2024-01-27T01:16:27;6.66;83.22
79026;DHT22;74892;44.760;37.726;2024-01-27T01:17:29;6.65;83.02
79026;DHT22;74892;44.760;37.726;2024-01-27T01:18:31;6.67;83.23
79026;DHT22;74892;44.760;37.726;2024-01-27T01:19:33;6.70;83.45
79026;DHT22;74892;44.760;37.726;2024-01-27T01:20:37;6.70;83.23
79026;DHT22;74892;44.760;37.726;2024-01-27T01:21:39;6.73;83.51
79026;DHT22;74892;44.760;37.726;2024-01-27T01:22:41;6.72;83.64
79026;DHT22;74892;44.760;37.726;2024-01-27T01:23:43;6.73;83.64
79026;DHT22;74892;44.760;37.726;2024-01-27T01:24:45;6.70;83.57
79026;DHT22;74892;44.760;37.726;2024-01-27T01:25:47;6.69;83.68
79026;DHT22;74892;44.760;37.726;2024-01-27T01:26:49;6.70;83.96
79026;DHT22;74892;44.760;37.726;2024-01-27T01:27:53;6.69;84.16
79026;DHT22;74892;44.760;37.726;2024-01-27T01:28:55;6.68;83.81
79026;DHT22;74892;44.760;37.726;2024-01-27T01:29:56;6.68;83.55
79026;DHT22;74892;44.760;37.726;2024-01-27T01:30:58;6.69;83.39
79026;DHT22;74892;44.760;37.726;2024-01-27T01:32:00;6.69;83.07
79026;DHT22;74892;44.760;37.726;2024-01-27T01:33:03;6.67;82.26
79026;DHT22;74892;44.760;37.726;2024-01-27T01:34:05;6.63;82.37
79026;DHT22;74892;44.760;37.726;2024-01-27T01:35:07;6.60;82.62
79026;DHT22;74892;44.760;37.726;2024-01-27T01:36:14;6.56;82.67
79026;DHT22;74892;44.760;37.726;2024-01-27T01:37:19;6.52;82.33
79026;DHT22;74892;44.760;37.726;2024-01-27T01:38:20;6.54;82.23
79026;DHT22;74892;44.760;37.726;2024-01-27T01:39:24;6.46;82.42
79026;DHT22;74892;44.760;37.726;2024-01-27T01:40:26;6.43;82.62
79026;DHT22;74892;44.760;37.726;2024-01-27T01:41:28;6.44;83.03
79026;DHT22;74892;44.760;37.726;2024-01-27T01:42:33;6.41;82.71
79026;DHT22;74892;44.760;37.726;2024-01-27T01:43:37;6.31;82.79
79026;DHT22;74892;44.760;37.726;2024-01-27T01:44:39;6.28;83.28
79026;DHT22;74892;44.760;37.726;2024-01-27T01:45:41;6.23;83.61
79026;DHT22;74892;44.760;37.726;2024-01-27T01:46:45;6.22;83.53
79026;DHT22;74892;44.760;37.726;2024-01-27T01:47:49;6.21;83.57
79026;DHT22;74892;44.760;37.726;2024-01-27T01:48:54;6.17;83.75
79026;DHT22;74892;44.760;37.726;2024-01-27T01:49:59;6.13;83.85
79026;DHT22;74892;44.760;37.726;2024-01-27T01:51:03;6.13;84.06
79026;DHT22;74892;44.760;37.726;2024-01-27T01:52:06;6.08;84.03
79026;DHT22;74892;44.760;37.726;2024-01-27T01:53:09;6.07;84.24
79026;DHT22;74892;44.760;37.726;2024-01-27T01:54:11;6.09;84.40
79026;DHT22;74892;44.760;37.726;2024-01-27T01:55:13;6.08;84.32
79026;DHT22;74892;44.760;37.726;2024-01-27T01:56:15;6.11;84.25
79026;DHT22;74892;44.760;37.726;2024-01-27T01:57:18;6.10;84.10
79026;DHT22;74892;44.760;37.726;2024-01-27T01:58:22;6.11;83.92
79026;DHT22;74892;44.760;37.726;2024-01-27T01:59:24;6.13;83.92
79026;DHT22;74892;44.760;37.726;2024-01-27T02:00:26;6.10;83.79
79026;DHT22;74892;44.760;37.726;2024-01-27T02:01:28;6.12;83.78
79026;DHT22;74892;44.760;37.726;2024-01-27T02:02:30;6.12;83.81
79026;DHT22;74892;44.760;37.726;2024-01-27T02:03:31;6.15;83.84
79026;DHT22;74892;44.760;37.726;2024-01-27T02:04:42;6.14;84.00
79026;DHT22;74892;44.760;37.726;2024-01-27T02:05:44;6.15;84.12
79026;DHT22;74892;44.760;37.726;2024-01-27T02:06:45;6.16;83.92
79026;DHT22;74892;44.760;37.726;2024-01-27T02:07:48;6.17;84.15
79026;DHT22;74892;44.760;37.726;2024-01-27T02:08:50;6.17;83.87
79026;DHT22;74892;44.760;37.726;2024-01-27T02:09:52;6.15;83.69
79026;DHT22;74892;44.760;37.726;2024-01-27T02:10:54;6.13;83.69
79026;DHT22;74892;44.760;37.726;2024-01-27T02:11:56;6.16;83.91
79026;DHT22;74892;44.760;37.726;2024-01-27T02:12:57;6.15;83.60
79026;DHT22;74892;44.760;37.726;2024-01-27T02:13:59;6.16;83.57
79026;DHT22;74892;44.760;37.726;2024-01-27T02:15:01;6.19;83.74
79026;DHT22;74892;44.760;37.726;2024-01-27T02:16:06;6.23;83.54
79026;DHT22;74892;44.760;37.726;2024-01-27T02:17:13;6.28;83.27
79026;DHT22;74892;44.760;37.726;2024-01-27T02:18:15;6.35;82.98
79026;DHT22;74892;44.760;37.726;2024-01-27T02:19:16;6.37;82.42
79026;DHT22;74892;44.760;37.726;2024-01-27T02:20:18;6.39;82.23
79026;DHT22;74892;44.760;37.726;2024-01-27T02:21:20;6.41;82.36
79026;DHT22;74892;44.760;37.726;2024-01-27T02:22:24;6.41;82.20
79026;DHT22;74892;44.760;37.726;2024-01-27T02:23:27;6.41;83.03
79026;DHT22;74892;44.760;37.726;2024-01-27T02:24:28;6.41;83.29
79026;DHT22;74892;44.760;37.726;2024-01-27T02:25:34;6.39;83.49
79026;DHT22;74892;44.760;37.726;2024-01-27T02:26:36;6.36;83.63
79026;DHT22;74892;44.760;37.726;2024-01-27T02:27:37;6.37;83.76
79026;DHT22;74892;44.760;37.726;2024-01-27T02:28:39;6.36;83.62
79026;DHT22;74892;44.760;37.726;2024-01-27T02:29:41;6.30;83.79
79026;DHT22;74892;44.760;37.726;2024-01-27T02:30:42;6.30;83.92
79026;DHT22;74892;44.760;37.726;2024-01-27T02:31:47;6.31;83.68
79026;DHT22;74892;44.760;37.726;2024-01-27T02:32:49;6.33;84.10
79026;DHT22;74892;44.760;37.726;2024-01-27T02:33:56;6.37;83.77
79026;DHT22;74892;44.760;37.726;2024-01-27T02:34:58;6.40;83.54
79026;DHT22;74892;44.760;37.726;2024-01-27T02:36:02;6.38;83.74
79026;DHT22;74892;44.760;37.726;2024-01-27T02:37:03;6.37;83.90
79026;DHT22;74892;44.760;37.726;2024-01-27T02:38:06;6.38;84.30
79026;DHT22;74892;44.760;37.726;2024-01-27T02:39:08;6.40;84.29
79026;DHT22;74892;44.760;37.726;2024-01-27T02:40:10;6.42;84.31
79026;DHT22;74892;44.760;37.726;2024-01-27T02:41:11;6.42;83.97
79026;DHT22;74892;44.760;37.726;2024-01-27T02:42:13;6.41;83.52
79026;DHT22;74892;44.760;37.726;2024-01-27T02:43:15;6.42;83.07
79026;DHT22;74892;44.760;37.726;2024-01-27T02:44:18;6.42;82.95
79026;DHT22;74892;44.760;37.726;2024-01-27T02:45:22;6.46;82.66
79026;DHT22;74892;44.760;37.726;2024-01-27T02:46:27;6.49;82.07
79026;DHT22;74892;44.760;37.726;2024-01-27T02:47:28;6.48;81.82
79026;DHT22;74892;44.760;37.726;2024-01-27T02:48:30;6.53;81.78
79026;DHT22;74892;44.760;37.726;2024-01-27T02:49:34;6.56;81.77
79026;DHT22;74892;44.760;37.726;2024-01-27T02:50:36;6.59;81.46
79026;DHT22;74892;44.760;37.726;2024-01-27T02:51:40;6.61;81.45
79026;DHT22;74892;44.760;37.726;2024-01-27T02:52:42;6.64;81.29
79026;DHT22;74892;44.760;37.726;2024-01-27T02:53:44;6.70;81.36
79026;DHT22;74892;44.760;37.726;2024-01-27T02:54:47;6.73;81.24
79026;DHT22;74892;44.760;37.726;2024-01-27T02:55:49;6.74;81.35
79026;DHT22;74892;44.760;37.726;2024-01-27T02:56:51;6.75;81.41
79026;DHT22;74892;44.760;37.726;2024-01-27T02:57:53;6.79;81.06
79026;DHT22;74892;44.760;37.726;2024-01-27T02:58:55;6.85;81.20
79026;DHT22;74892;44.760;37.726;2024-01-27T03:00:00;6.89;80.57
79026;DHT22;74892;44.760;37.726;2024-01-27T03:01:04;6.93;80.37
79026;DHT22;74892;44.760;37.726;2024-01-27T03:02:09;6.95;80.64
79026;DHT22;74892;44.760;37.726;2024-01-27T03:03:11;6.89;80.20
79026;DHT22;74892;44.760;37.726;2024-01-27T03:04:13;6.85;80.36
79026;DHT22;74892;44.760;37.726;2024-01-27T03:05:15;6.85;80.68
79026;DHT22;74892;44.760;37.726;2024-01-27T03:06:16;6.80;80.59
79026;DHT22;74892;44.760;37.726;2024-01-27T03:07:18;6.82;80.72
79026;DHT22;74892;44.760;37.726;2024-01-27T03:08:20;6.81;80.67
79026;DHT22;74892;44.760;37.726;2024-01-27T03:09:21;6.84;80.91
79026;DHT22;74892;44.760;37.726;2024-01-27T03:10:23;6.84;81.30
79026;DHT22;74892;44.760;37.726;2024-01-27T03:11:28;6.86;81.35
79026;DHT22;74892;44.760;37.726;2024-01-27T03:12:32;6.85;81.47
79026;DHT22;74892;44.760;37.726;2024-01-27T03:13:34;6.83;81.33
79026;DHT22;74892;44.760;37.726;2024-01-27T03:14:35;6.81;81.28
79026;DHT22;74892;44.760;37.726;2024-01-27T03:15:42;6.81;81.40
79026;DHT22;74892;44.760;37.726;2024-01-27T03:16:44;6.85;81.66
79026;DHT22;74892;44.760;37.726;2024-01-27T03:17:46;6.89;81.40
79026;DHT22;74892;44.760;37.726;2024-01-27T03:18:47;6.93;81.77
79026;DHT22;74892;44.760;37.726;2024-01-27T03:19:49;6.94;81.81
79026;DHT22;74892;44.760;37.726;2024-01-27T03:20:51;6.94;81.68
79026;DHT22;74892;44.760;37.726;2024-01-27T03:21:53;6.95;81.71
79026;DHT22;74892;44.760;37.726;2024-01-27T03:22:54;6.99;81.45
79026;DHT22;74892;44.760;37.726;2024-01-27T03:23:56;6.95;81.30
79026;DHT22;74892;44.760;37.726;2024-01-27T03:24:58;6.93;80.66
79026;DHT22;74892;44.760;37.726;2024-01-27T03:26:02;6.94;79.83
79026;DHT22;74892;44.760;37.726;2024-01-27T03:27:04;6.94;80.14
79026;DHT22;74892;44.760;37.726;2024-01-27T03:28:05;6.90;80.31
79026;DHT22;74892;44.760;37.726;2024-01-27T03:29:07;6.88;80.45
79026;DHT22;74892;44.760;37.726;2024-01-27T03:30:09;6.88;80.11
79026;DHT22;74892;44.760;37.726;2024-01-27T03:31:13;6.90;80.49
79026;DHT22;74892;44.760;37.726;2024-01-27T03:32:15;6.94;80.75
79026;DHT22;74892;44.760;37.726;2024-01-27T03:33:16;6.96;80.37
79026;DHT22;74892;44.760;37.726;2024-01-27T03:34:18;6.97;80.40
79026;DHT22;74892;44.760;37.726;2024-01-27T03:35:22;6.99;80.58
79026;DHT22;74892;44.760;37.726;2024-01-27T03:36:24;7.01;80.64
79026;DHT22;74892;44.760;37.726;2024-01-27T03:37:26;7.01;80.55
79026;DHT22;74892;44.760;37.726;2024-01-27T03:38:28;7.00;79.57
79026;DHT22;74892;44.760;37.726;2024-01-27T03:39:32;6.95;79.69
79026;DHT22;74892;44.760;37.726;2024-01-27T03:40:34;6.93;80.15
79026;DHT22;74892;44.760;37.726;2024-01-27T03:41:36;6.94;80.21
79026;DHT22;74892;44.760;37.726;2024-01-27T03:42:38;6.97;80.45
79026;DHT22;74892;44.760;37.726;2024-01-27T03:43:39;6.98;80.75
79026;DHT22;74892;44.760;37.726;2024-01-27T03:44:43;6.99;80.63
79026;DHT22;74892;44.760;37.726;2024-01-27T03:45:47;7.01;80.61
79026;DHT22;74892;44.760;37.726;2024-01-27T03:46:49;6.98;80.44
79026;DHT22;74892;44.760;37.726;2024-01-27T03:47:52;7.00;80.52
79026;DHT22;74892;44.760;37.726;2024-01-27T03:48:54;7.01;80.60
79026;DHT22;74892;44.760;37.726;2024-01-27T03:49:56;7.00;80.24
79026;DHT22;74892;44.760;37.726;2024-01-27T03:50:57;6.99;80.07
79026;DHT22;74892;44.760;37.726;2024-01-27T03:51:59;7.00;80.42
79026;DHT22;74892;44.760;37.726;2024-01-27T03:53:04;7.04;80.27
79026;DHT22;74892;44.760;37.726;2024-01-27T03:54:05;7.09;79.11
79026;DHT22;74892;44.760;37.726;2024-01-27T03:55:08;7.14;78.91
79026;DHT22;74892;44.760;37.726;2024-01-27T03:56:12;7.14;79.05
79026;DHT22;74892;44.760;37.726;2024-01-27T03:57:14;7.15;79.47
79026;DHT22;74892;44.760;37.726;2024-01-27T03:58:16;7.15;78.92
79026;DHT22;74892;44.760;37.726;2024-01-27T03:59:17;7.16;78.88
79026;DHT22;74892;44.760;37.726;2024-01-27T04:00:19;7.19;78.82
79026;DHT22;74892;44.760;37.726;2024-01-27T04:01:21;7.19;78.95
79026;DHT22;74892;44.760;37.726;2024-01-27T04:02:23;7.20;79.06
79026;DHT22;74892;44.760;37.726;2024-01-27T04:03:25;7.15;79.46
79026;DHT22;74892;44.760;37.726;2024-01-27T04:04:26;7.10;80.06
79026;DHT22;74892;44.760;37.726;2024-01-27T04:05:29;7.08;79.69
79026;DHT22;74892;44.760;37.726;2024-01-27T04:06:36;7.04;79.49
79026;DHT22;74892;44.760;37.726;2024-01-27T04:07:39;7.01;79.91
79026;DHT22;74892;44.760;37.726;2024-01-27T04:08:41;6.96;80.48
79026;DHT22;74892;44.760;37.726;2024-01-27T04:09:45;6.94;80.42
79026;DHT22;74892;44.760;37.726;2024-01-27T04:10:46;6.91;80.59
79026;DHT22;74892;44.760;37.726;2024-01-27T04:11:48;6.89;80.43
79026;DHT22;74892;44.760;37.726;2024-01-27T04:12:50;6.88;80.59
79026;DHT22;74892;44.760;37.726;2024-01-27T04:13:51;6.86;80.38
79026;DHT22;74892;44.760;37.726;2024-01-27T04:14:53;6.82;80.24
79026;DHT22;74892;44.760;37.726;2024-01-27T04:15:54;6.79;80.11
79026;DHT22;74892;44.760;37.726;2024-01-27T04:16:56;6.72;80.30
79026;DHT22;74892;44.760;37.726;2024-01-27T04:17:58;6.69;80.59
79026;DHT22;74892;44.760;37.726;2024-01-27T04:18:59;6.64;80.62
79026;DHT22;74892;44.760;37.726;2024-01-27T04:20:01;6.59;80.65
79026;DHT22;74892;44.760;37.726;2024-01-27T04:21:03;6.60;80.84
79026;DHT22;74892;44.760;37.726;2024-01-27T04:22:04;6.63;81.01
79026;DHT22;74892;44.760;37.726;2024-01-27T04:23:06;6.59;80.77
79026;DHT22;74892;44.760;37.726;2024-01-27T04:24:08;6.61;81.11
79026;DHT22;74892;44.760;37.726;2024-01-27T04:25:10;6.56;80.62
79026;DHT22;74892;44.760;37.726;2024-01-27T04:26:13;6.54;80.68
79026;DHT22;74892;44.760;37.726;2024-01-27T04:27:14;6.52;80.79
79026;DHT22;74892;44.760;37.726;2024-01-27T04:28:16;6.53;80.81
79026;DHT22;74892;44.760;37.726;2024-01-27T04:29:18;6.56;81.14
79026;DHT22;74892;44.760;37.726;2024-01-27T04:30:20;6.55;80.98
79026;DHT22;74892;44.760;37.726;2024-01-27T04:31:22;6.52;80.94
79026;DHT22;74892;44.760;37.726;2024-01-27T04:32:24;6.51;80.78
79026;DHT22;74892;44.760;37.726;2024-01-27T04:33:25;6.46;80.77
79026;DHT22;74892;44.760;37.726;2024-01-27T04:34:27;6.45;80.78
79026;DHT22;74892;44.760;37.726;2024-01-27T04:35:29;6.46;81.16
79026;DHT22;74892;44.760;37.726;2024-01-27T04:36:30;6.50;80.98
79026;DHT22;74892;44.760;37.726;2024-01-27T04:37:32;6.46;80.99
79026;DHT22;74892;44.760;37.726;2024-01-27T04:38:34;6.49;81.05
79026;DHT22;74892;44.760;37.726;2024-01-27T04:39:35;6.48;81.16
79026;DHT22;74892;44.760;37.726;2024-01-27T04:40:38;6.44;80.96
79026;DHT22;74892;44.760;37.726;2024-01-27T04:41:43;6.43;81.05
79026;DHT22;74892;44.760;37.726;2024-01-27T04:42:48;6.37;80.15
79026;DHT22;74892;44.760;37.726;2024-01-27T04:43:49;6.33;80.36
79026;DHT22;74892;44.760;37.726;2024-01-27T04:44:51;6.30;80.98
79026;DHT22;74892;44.760;37.726;2024-01-27T04:45:53;6.25;80.85
79026;DHT22;74892;44.760;37.726;2024-01-27T04:46:55;6.19;80.94
79026;DHT22;74892;44.760;37.726;2024-01-27T04:47:57;6.13;81.10
79026;DHT22;74892;44.760;37.726;2024-01-27T04:48:59;6.15;80.98
79026;DHT22;74892;44.760;37.726;2024-01-27T04:50:00;6.20;80.78
79026;DHT22;74892;44.760;37.726;2024-01-27T04:51:03;6.17;81.07
79026;DHT22;74892;44.760;37.726;2024-01-27T04:52:06;6.12;80.73
79026;DHT22;74892;44.760;37.726;2024-01-27T04:53:07;6.10;80.42
79026;DHT22;74892;44.760;37.726;2024-01-27T04:54:09;6.10;80.62
79026;DHT22;74892;44.760;37.726;2024-01-27T04:55:11;6.11;80.81
79026;DHT22;74892;44.760;37.726;2024-01-27T04:56:13;6.17;81.13
79026;DHT22;74892;44.760;37.726;2024-01-27T04:57:15;6.19;80.88
79026;DHT22;74892;44.760;37.726;2024-01-27T04:58:17;6.20;80.49
79026;DHT22;74892;44.760;37.726;2024-01-27T04:59:18;6.16;80.11
79026;DHT22;74892;44.760;37.726;2024-01-27T05:00:20;6.15;80.32
79026;DHT22;74892;44.760;37.726;2024-01-27T05:01:24;6.13;80.36
79026;DHT22;74892;44.760;37.726;2024-01-27T05:02:25;6.11;80.24
79026;DHT22;74892;44.760;37.726;2024-01-27T05:03:27;6.04;80.54
79026;DHT22;74892;44.760;37.726;2024-01-27T05:04:28;6.00;80.70
79026;DHT22;74892;44.760;37.726;2024-01-27T05:05:30;5.93;81.07
79026;DHT22;74892;44.760;37.726;2024-01-27T05:06:32;5.85;81.36
79026;DHT22;74892;44.760;37.726;2024-01-27T05:07:33;5.78;81.62
79026;DHT22;74892;44.760;37.726;2024-01-27T05:08:35;5.75;82.04
79026;DHT22;74892;44.760;37.726;2024-01-27T05:09:37;5.74;82.07
79026;DHT22;74892;44.760;37.726;2024-01-27T05:10:38;5.76;81.59
79026;DHT22;74892;44.760;37.726;2024-01-27T05:11:40;5.72;81.62
79026;DHT22;74892;44.760;37.726;2024-01-27T05:12:43;5.72;81.55
79026;DHT22;74892;44.760;37.726;2024-01-27T05:13:45;5.70;81.66
79026;DHT22;74892;44.760;37.726;2024-01-27T05:14:46;5.69;81.56
79026;DHT22;74892;44.760;37.726;2024-01-27T05:15:48;5.70;81.79
79026;DHT22;74892;44.760;37.726;2024-01-27T05:16:51;5.75;81.59
79026;DHT22;74892;44.760;37.726;2024-01-27T05:17:52;5.71;81.34
79026;DHT22;74892;44.760;37.726;2024-01-27T05:18:54;5.71;81.33
79026;DHT22;74892;44.760;37.726;2024-01-27T05:19:56;5.70;81.26
79026;DHT22;74892;44.760;37.726;2024-01-27T05:20:58;5.70;80.91
79026;DHT22;74892;44.760;37.726;2024-01-27T05:21:59;5.66;81.18
79026;DHT22;74892;44.760;37.726;2024-01-27T05:23:01;5.62;81.46
79026;DHT22;74892;44.760;37.726;2024-01-27T05:24:03;5.56;81.33
79026;DHT22;74892;44.760;37.726;2024-01-27T05:25:05;5.50;81.49
79026;DHT22;74892;44.760;37.726;2024-01-27T05:26:07;5.46;81.78
79026;DHT22;74892;44.760;37.726;2024-01-27T05:27:09;5.42;82.05
79026;DHT22;74892;44.760;37.726;2024-01-27T05:28:10;5.41;82.01
79026;DHT22;74892;44.760;37.726;2024-01-27T05:29:12;5.39;82.01
79026;DHT22;74892;44.760;37.726;2024-01-27T05:30:13;5.40;82.01
79026;DHT22;74892;44.760;37.726;2024-01-27T05:31:16;5.41;81.76
79026;DHT22;74892;44.760;37.726;2024-01-27T05:32:18;5.40;81.91
79026;DHT22;74892;44.760;37.726;2024-01-27T05:33:20;5.41;81.96
79026;DHT22;74892;44.760;37.726;2024-01-27T05:34:21;5.43;81.87
79026;DHT22;74892;44.760;37.726;2024-01-27T05:35:23;5.43;81.69
79026;DHT22;74892;44.760;37.726;2024-01-27T05:36:24;5.47;81.86
79026;DHT22;74892;44.760;37.726;2024-01-27T05:37:26;5.48;81.28
79026;DHT22;74892;44.760;37.726;2024-01-27T05:38:27;5.49;81.48
79026;DHT22;74892;44.760;37.726;2024-01-27T05:39:31;5.50;81.60
79026;DHT22;74892;44.760;37.726;2024-01-27T05:40:33;5.50;81.18
79026;DHT22;74892;44.760;37.726;2024-01-27T05:41:35;5.49;81.39
79026;DHT22;74892;44.760;37.726;2024-01-27T05:42:37;5.53;81.33
79026;DHT22;74892;44.760;37.726;2024-01-27T05:43:59;5.57;81.18
79026;DHT22;74892;44.760;37.726;2024-01-27T05:45:00;5.60;81.17
79026;DHT22;74892;44.760;37.726;2024-01-27T05:46:03;5.60;80.99
79026;DHT22;74892;44.760;37.726;2024-01-27T05:47:05;5.61;80.51
79026;DHT22;74892;44.760;37.726;2024-01-27T05:48:07;5.60;80.39
79026;DHT22;74892;44.760;37.726;2024-01-27T05:49:08;5.62;80.56
79026;DHT22;74892;44.760;37.726;2024-01-27T05:50:10;5.61;80.49
79026;DHT22;74892;44.760;37.726;2024-01-27T05:51:11;5.62;80.15
79026;DHT22;74892;44.760;37.726;2024-01-27T05:52:13;5.60;80.49
79026;DHT22;74892;44.760;37.726;2024-01-27T05:53:14;5.60;80.37
79026;DHT22;74892;44.760;37.726;2024-01-27T05:54:16;5.66;80.56
79026;DHT22;74892;44.760;37.726;2024-01-27T05:55:18;5.72;80.45
79026;DHT22;74892;44.760;37.726;2024-01-27T05:56:19;5.77;80.14
79026;DHT22;74892;44.760;37.726;2024-01-27T05:57:23;5.83;79.69
79026;DHT22;74892;44.760;37.726;2024-01-27T05:58:25;5.87;79.21
79026;DHT22;74892;44.760;37.726;2024-01-27T05:59:27;5.87;79.44
79026;DHT22;74892;44.760;37.726;2024-01-27T06:00:29;5.85;79.48
79026;DHT22;74892;44.760;37.726;2024-01-27T06:01:30;5.86;79.68
79026;DHT22;74892;44.760;37.726;2024-01-27T06:02:31;5.89;79.32
79026;DHT22;74892;44.760;37.726;2024-01-27T06:03:33;5.90;79.23
79026;DHT22;74892;44.760;37.726;2024-01-27T06:04:35;5.95;79.17
79026;DHT22;74892;44.760;37.726;2024-01-27T06:05:37;6.04;79.01
79026;DHT22;74892;44.760;37.726;2024-01-27T06:06:38;6.12;78.29
79026;DHT22;74892;44.760;37.726;2024-01-27T06:07:41;6.14;78.27
79026;DHT22;74892;44.760;37.726;2024-01-27T06:08:43;6.20;78.01
79026;DHT22;74892;44.760;37.726;2024-01-27T06:09:44;6.24;77.70
79026;DHT22;74892;44.760;37.726;2024-01-27T06:10:46;6.26;77.18
79026;DHT22;74892;44.760;37.726;2024-01-27T06:11:48;6.29;77.41
79026;DHT22;74892;44.760;37.726;2024-01-27T06:12:49;6.36;77.45
79026;DHT22;74892;44.760;37.726;2024-01-27T06:13:52;6.40;76.76
79026;DHT22;74892;44.760;37.726;2024-01-27T06:14:53;6.38;76.60
79026;DHT22;74892;44.760;37.726;2024-01-27T06:15:55;6.50;77.38
79026;DHT22;74892;44.760;37.726;2024-01-27T06:16:57;6.91;75.98
79026;DHT22;74892;44.760;37.726;2024-01-27T06:17:59;7.26;74.09
79026;DHT22;74892;44.760;37.726;2024-01-27T06:19:00;7.65;72.70
79026;DHT22;74892;44.760;37.726;2024-01-27T06:20:02;8.24;70.90
79026;DHT22;74892;44.760;37.726;2024-01-27T06:21:06;8.63;68.60
79026;DHT22;74892;44.760;37.726;2024-01-27T06:22:07;8.48;68.08
79026;DHT22;74892;44.760;37.726;2024-01-27T06:23:09;8.36;69.56
79026;DHT22;74892;44.760;37.726;2024-01-27T06:24:10;8.41;68.94
79026;DHT22;74892;44.760;37.726;2024-01-27T06:25:12;8.47;69.09
79026;DHT22;74892;44.760;37.726;2024-01-27T06:26:14;8.59;68.12
79026;DHT22;74892;44.760;37.726;2024-01-27T06:27:15;8.95;67.11
79026;DHT22;74892;44.760;37.726;2024-01-27T06:28:17;9.35;65.91
79026;DHT22;74892;44.760;37.726;2024-01-27T06:29:19;9.24;65.91
79026;DHT22;74892;44.760;37.726;2024-01-27T06:30:20;8.94;66.70
79026;DHT22;74892;44.760;37.726;2024-01-27T06:31:24;8.74;67.46
79026;DHT22;74892;44.760;37.726;2024-01-27T06:32:49;8.52;68.01
79026;DHT22;74892;44.760;37.726;2024-01-27T06:33:56;8.50;68.73
79026;DHT22;74892;44.760;37.726;2024-01-27T06:35:11;8.43;69.33